createdAt,value
2023-02-13T00:01:19.956Z,5.97
2023-02-13T00:03:49.231Z,5.80
2023-02-13T00:06:17.179Z,4.83
2023-02-13T00:08:45.069Z,6.57
2023-02-13T00:11:12.987Z,7.10
2023-02-13T00:13:40.990Z,3.27
2023-02-13T00:16:09.301Z,3.10
2023-02-13T00:18:40.158Z,2.77
2023-02-13T00:21:12.321Z,3.73
2023-02-13T00:23:41.284Z,2.53
2023-02-13T00:26:13.643Z,2.47
2023-02-13T00:28:46.385Z,2.57
2023-02-13T00:31:16.941Z,2.47
2023-02-13T00:33:45.878Z,2.10
2023-02-13T00:36:17.877Z,3.13
2023-02-13T00:38:47.804Z,2.47
2023-02-13T00:41:17.609Z,1.90
2023-02-13T00:43:46.270Z,2.50
2023-02-13T00:46:14.601Z,1.67
2023-02-13T00:48:43.064Z,1.93
2023-02-13T00:51:12.405Z,1.67
2023-02-13T00:53:41.808Z,1.97
2023-02-13T00:56:10.375Z,1.70
2023-02-13T00:58:38.966Z,2.43
2023-02-13T01:01:07.301Z,1.40
2023-02-13T01:03:35.977Z,1.60
2023-02-13T01:06:04.119Z,2.00
2023-02-13T01:08:34.545Z,2.40
2023-02-13T01:11:04.610Z,2.70
2023-02-13T01:13:32.469Z,2.10
2023-02-13T01:16:00.779Z,2.37
2023-02-13T01:18:29.321Z,1.53
2023-02-13T01:21:01.226Z,1.87
2023-02-13T01:23:32.698Z,2.20
2023-02-13T01:26:01.147Z,3.27
2023-02-13T01:28:30.384Z,2.50
2023-02-13T01:31:00.201Z,1.77
2023-02-13T01:33:30.439Z,2.70
2023-02-13T01:36:00.146Z,1.77
2023-02-13T01:38:29.007Z,3.13
2023-02-13T01:40:57.469Z,4.63
2023-02-13T01:43:26.211Z,4.90
2023-02-13T01:46:04.753Z,3.17
2023-02-13T01:48:32.732Z,3.57
2023-02-13T01:51:06.524Z,4.97
2023-02-13T01:53:40.734Z,3.30
2023-02-13T01:56:15.928Z,3.50
2023-02-13T01:58:49.582Z,3.20
2023-02-13T02:01:19.567Z,3.23
2023-02-13T02:03:56.375Z,3.20
2023-02-13T02:06:30.396Z,4.10
2023-02-13T02:09:03.888Z,2.80
2023-02-13T02:11:40.553Z,3.07
2023-02-13T02:14:08.826Z,3.63
2023-02-13T02:16:38.042Z,2.83
2023-02-13T02:19:15.641Z,2.20
2023-02-13T02:22:31.317Z,2.90
2023-02-13T02:25:38.031Z,2.87
2023-02-13T02:28:53.242Z,4.43
2023-02-13T02:32:09.540Z,3.43
2023-02-13T02:34:52.663Z,2.97
2023-02-13T02:37:42.692Z,2.73
2023-02-13T02:40:27.099Z,3.63
2023-02-13T02:43:19.338Z,3.87
2023-02-13T02:45:57.459Z,2.97
2023-02-13T02:48:52.621Z,3.83
2023-02-13T02:51:31.880Z,4.37
2023-02-13T02:54:32.254Z,3.27
2023-02-13T02:57:11.192Z,3.60
2023-02-13T03:00:00.753Z,2.93
2023-02-13T03:02:44.876Z,2.83
2023-02-13T03:05:41.353Z,2.87
2023-02-13T03:08:11.956Z,2.93
2023-02-13T03:11:00.075Z,3.30
2023-02-13T03:13:42.746Z,3.23
2023-02-13T03:16:37.070Z,3.33
2023-02-13T03:19:22.879Z,4.20
2023-02-13T03:22:16.420Z,1.87
2023-02-13T03:25:00.960Z,3.27
2023-02-13T03:28:02.498Z,2.70
2023-02-13T03:30:48.203Z,2.63
2023-02-13T03:33:37.950Z,2.93
2023-02-13T03:36:45.534Z,2.73
2023-02-13T03:39:24.963Z,2.80
2023-02-13T03:42:02.595Z,2.50
2023-02-13T03:44:35.753Z,2.90
2023-02-13T03:47:10.280Z,2.50
2023-02-13T03:50:04.026Z,1.77
2023-02-13T03:52:39.372Z,2.37
2023-02-13T03:55:29.449Z,2.37
2023-02-13T03:58:26.379Z,2.50
2023-02-13T04:01:02.389Z,2.30
2023-02-13T04:03:38.293Z,2.17
2023-02-13T04:06:12.612Z,1.80
2023-02-13T04:08:40.812Z,3.53
2023-02-13T04:11:16.367Z,2.07
2023-02-13T04:13:53.526Z,1.77
2023-02-13T04:16:28.766Z,1.83
2023-02-13T04:18:58.937Z,2.53
2023-02-13T04:21:26.960Z,1.30
2023-02-13T04:23:54.834Z,2.03
2023-02-13T04:26:25.257Z,1.90
2023-02-13T04:28:54.451Z,0.73
2023-02-13T04:31:22.458Z,1.17
2023-02-13T04:33:50.389Z,1.20
2023-02-13T04:36:18.239Z,0.83
2023-02-13T04:38:46.311Z,1.33
2023-02-13T04:41:14.268Z,1.93
2023-02-13T04:43:42.992Z,1.17
2023-02-13T04:46:12.389Z,0.77
2023-02-13T04:48:40.303Z,0.93
2023-02-13T04:51:08.224Z,1.77
2023-02-13T04:53:36.141Z,1.10
2023-02-13T04:56:04.872Z,1.40
2023-02-13T04:58:32.821Z,2.00
2023-02-13T05:01:01.021Z,1.20
2023-02-13T05:03:30.464Z,2.10
2023-02-13T05:05:58.330Z,1.67
2023-02-13T05:08:26.212Z,1.07
2023-02-13T05:10:54.393Z,1.20
2023-02-13T05:13:22.554Z,0.90
2023-02-13T05:15:52.513Z,1.10
2023-02-13T05:18:20.568Z,2.33
2023-02-13T05:21:09.789Z,1.03
2023-02-13T05:23:37.082Z,2.30
2023-02-13T05:26:05.460Z,2.17
2023-02-13T05:28:50.991Z,2.77
2023-02-13T05:31:19.072Z,3.17
2023-02-13T05:33:46.976Z,6.77
2023-02-13T05:36:16.355Z,7.23
2023-02-13T05:38:44.239Z,11.10
2023-02-13T05:41:13.503Z,12.90
2023-02-13T05:43:41.462Z,11.23
2023-02-13T05:46:11.594Z,15.70
2023-02-13T05:48:40.043Z,13.27
2023-02-13T05:51:08.109Z,10.20
2023-02-13T05:53:37.524Z,11.57
2023-02-13T05:56:07.824Z,8.70
2023-02-13T05:58:36.026Z,10.23
2023-02-13T06:01:06.782Z,6.47
2023-02-13T06:03:35.073Z,5.00
2023-02-13T06:06:03.309Z,5.23
2023-02-13T06:08:31.194Z,4.00
2023-02-13T06:11:00.736Z,4.87
2023-02-13T06:13:28.889Z,3.87
2023-02-13T06:15:57.033Z,4.13
2023-02-13T06:18:25.068Z,4.23
2023-02-13T06:20:52.955Z,3.10
2023-02-13T06:23:20.828Z,3.10
2023-02-13T06:25:49.049Z,1.67
2023-02-13T06:28:18.371Z,2.00
2023-02-13T06:30:46.382Z,2.20
2023-02-13T06:33:14.391Z,2.93
2023-02-13T06:35:42.288Z,1.80
2023-02-13T06:38:13.091Z,2.93
2023-02-13T06:40:43.085Z,1.63
2023-02-13T06:43:10.999Z,2.33
2023-02-13T06:45:40.207Z,3.70
2023-02-13T06:48:09.051Z,2.00
2023-02-13T06:50:37.067Z,2.67
2023-02-13T06:53:04.962Z,2.17
2023-02-13T06:55:32.959Z,1.13
2023-02-13T06:58:01.333Z,1.00
2023-02-13T07:00:29.298Z,0.80
2023-02-13T07:03:04.470Z,1.03
2023-02-13T07:05:32.711Z,2.07
2023-02-13T07:08:00.670Z,1.00
2023-02-13T07:10:28.944Z,1.20
2023-02-13T07:13:05.311Z,0.50
2023-02-13T07:15:35.414Z,2.27
2023-02-13T07:18:05.730Z,4.13
2023-02-13T07:20:34.807Z,6.40
2023-02-13T07:23:05.286Z,3.47
2023-02-13T07:25:33.855Z,2.70
2023-02-13T07:28:06.450Z,1.23
2023-02-13T07:30:36.073Z,2.00
2023-02-13T07:33:06.418Z,0.87
2023-02-13T07:35:35.901Z,1.43
2023-02-13T07:38:04.240Z,1.17
2023-02-13T07:40:32.135Z,1.53
2023-02-13T07:43:02.612Z,0.97
2023-02-13T07:45:30.666Z,1.83
2023-02-13T07:47:59.752Z,1.93
2023-02-13T07:50:29.652Z,2.40
2023-02-13T07:52:59.291Z,3.03
2023-02-13T07:55:28.731Z,1.43
2023-02-13T07:57:57.406Z,1.57
2023-02-13T08:00:25.572Z,1.13
2023-02-13T08:02:53.474Z,1.40
2023-02-13T08:05:21.550Z,0.57
2023-02-13T08:07:51.047Z,1.17
2023-02-13T08:10:37.270Z,1.63
2023-02-13T08:13:07.803Z,0.70
2023-02-13T08:15:35.930Z,0.97
2023-02-13T08:18:03.852Z,1.30
2023-02-13T08:20:31.855Z,0.90
2023-02-13T08:23:06.914Z,0.87
2023-02-13T08:25:36.008Z,0.90
2023-02-13T08:28:04.104Z,1.70
2023-02-13T08:30:32.248Z,1.10
2023-02-13T08:33:00.476Z,2.03
2023-02-13T08:35:29.841Z,3.93
2023-02-13T08:37:58.569Z,1.60
2023-02-13T08:40:27.884Z,5.20
2023-02-13T08:43:02.092Z,4.67
2023-02-13T08:45:30.522Z,2.87
2023-02-13T08:47:58.990Z,2.57
2023-02-13T08:50:29.108Z,1.67
2023-02-13T08:52:57.068Z,5.53
2023-02-13T08:55:25.281Z,2.67
2023-02-13T08:57:54.544Z,4.83
2023-02-13T09:00:22.993Z,2.50
2023-02-13T09:02:50.906Z,2.00
2023-02-13T09:05:18.849Z,3.80
2023-02-13T09:07:46.852Z,1.50
2023-02-13T09:10:14.751Z,2.57
2023-02-13T09:12:42.634Z,3.87
2023-02-13T09:15:12.056Z,2.87
2023-02-13T09:17:39.907Z,3.90
2023-02-13T09:20:09.614Z,3.50
2023-02-13T09:22:37.922Z,4.50
2023-02-13T09:25:06.908Z,5.27
2023-02-13T09:27:35.796Z,4.43
2023-02-13T09:30:03.764Z,4.30
2023-02-13T09:32:34.143Z,2.97
2023-02-13T09:35:02.150Z,1.80
2023-02-13T09:37:32.532Z,1.03
2023-02-13T09:40:00.438Z,3.50
2023-02-13T09:42:33.924Z,2.53
2023-02-13T09:45:07.447Z,4.03
2023-02-13T09:47:40.837Z,5.13
2023-02-13T09:50:18.732Z,2.60
2023-02-13T09:52:49.170Z,1.63
2023-02-13T09:55:20.052Z,2.37
2023-02-13T09:57:58.341Z,1.70
2023-02-13T10:00:36.762Z,1.67
2023-02-13T10:03:28.799Z,1.03
2023-02-13T10:06:07.249Z,2.47
2023-02-13T10:08:57.880Z,0.83
2023-02-13T10:11:52.988Z,4.50
2023-02-13T10:14:33.009Z,1.10
2023-02-13T10:17:09.100Z,7.57
2023-02-13T10:19:45.269Z,1.53
2023-02-13T10:22:19.818Z,1.03
2023-02-13T10:24:54.123Z,3.43
2023-02-13T10:27:26.111Z,2.10
2023-02-13T10:30:09.361Z,2.10
2023-02-13T10:32:47.633Z,1.43
2023-02-13T10:35:27.297Z,1.20
2023-02-13T10:37:59.117Z,3.60
2023-02-13T10:40:38.756Z,2.27
2023-02-13T10:43:11.116Z,2.77
2023-02-13T10:46:05.188Z,3.27
2023-02-13T10:48:54.147Z,3.43
2023-02-13T10:51:35.754Z,2.40
2023-02-13T10:54:27.427Z,2.70
2023-02-13T10:57:10.363Z,3.93
2023-02-13T10:59:58.389Z,1.97
2023-02-13T11:02:30.222Z,3.87
2023-02-13T11:05:03.869Z,6.90
2023-02-13T11:07:35.176Z,2.97
2023-02-13T11:10:16.354Z,1.50
2023-02-13T11:12:44.534Z,2.10
2023-02-13T11:15:25.919Z,2.70
2023-02-13T11:17:57.554Z,3.33
2023-02-13T11:20:35.030Z,2.60
2023-02-13T11:23:35.030Z,4.73
2023-02-13T11:26:09.098Z,2.50
2023-02-13T11:28:40.801Z,1.30
2023-02-13T11:31:26.085Z,1.33
2023-02-13T11:33:54.591Z,2.67
2023-02-13T11:36:29.768Z,3.40
2023-02-13T11:39:05.929Z,2.00
2023-02-13T11:41:43.137Z,1.30
2023-02-13T11:44:26.503Z,2.70
2023-02-13T11:46:57.528Z,2.70
2023-02-13T11:49:28.868Z,5.30
2023-02-13T11:51:59.198Z,2.07
2023-02-13T11:54:34.953Z,2.43
2023-02-13T11:57:18.196Z,1.40
2023-02-13T11:59:48.928Z,3.47
2023-02-13T12:02:21.862Z,3.20
2023-02-13T12:04:52.449Z,4.53
2023-02-13T12:07:27.910Z,3.70
2023-02-13T12:10:03.895Z,7.40
2023-02-13T12:12:41.573Z,2.90
2023-02-13T12:15:19.656Z,3.20
2023-02-13T12:17:58.217Z,1.97
2023-02-13T12:20:30.138Z,1.03
2023-02-13T12:23:13.291Z,1.70
2023-02-13T12:26:05.292Z,2.87
2023-02-13T12:28:54.028Z,2.70
2023-02-13T12:31:51.115Z,3.80
2023-02-13T12:34:56.487Z,1.10
2023-02-13T12:37:51.246Z,2.20
2023-02-13T12:40:43.833Z,2.37
2023-02-13T12:43:54.846Z,5.00
2023-02-13T12:46:34.580Z,4.37
2023-02-13T12:49:22.697Z,5.13
2023-02-13T12:52:05.365Z,4.60
2023-02-13T12:54:49.158Z,4.80
2023-02-13T12:57:37.429Z,4.10
2023-02-13T13:00:30.998Z,6.13
2023-02-13T13:03:37.687Z,3.27
2023-02-13T13:06:42.126Z,4.23
2023-02-13T13:09:35.222Z,6.83
2023-02-13T13:12:33.356Z,4.73
2023-02-13T13:15:16.004Z,7.37
2023-02-13T13:18:07.315Z,3.70
2023-02-13T13:21:00.396Z,4.47
2023-02-13T13:23:36.829Z,4.57
2023-02-13T13:26:21.210Z,2.20
2023-02-13T13:28:55.072Z,1.73
2023-02-13T13:31:27.632Z,7.13
2023-02-13T13:34:02.988Z,14.33
2023-02-13T13:36:46.120Z,2.20
2023-02-13T13:39:31.965Z,1.63
2023-02-13T13:42:13.344Z,4.03
2023-02-13T13:45:21.830Z,2.17
2023-02-13T13:48:10.736Z,2.63
2023-02-13T13:50:42.563Z,2.70
2023-02-13T13:53:15.981Z,1.70
2023-02-13T13:56:09.713Z,3.60
2023-02-13T13:58:44.329Z,1.20
2023-02-13T14:01:29.270Z,1.80
2023-02-13T14:04:01.012Z,1.73
2023-02-13T14:07:20.222Z,2.00
2023-02-13T14:09:49.649Z,1.50
2023-02-13T14:12:39.503Z,2.40
2023-02-13T14:15:50.798Z,1.43
2023-02-13T14:18:24.553Z,1.40
2023-02-13T14:20:56.295Z,2.03
2023-02-13T14:23:49.680Z,1.67
2023-02-13T14:26:36.389Z,2.80
2023-02-13T14:29:32.802Z,2.30
2023-02-13T14:32:06.751Z,1.20
2023-02-13T14:34:39.205Z,2.10
2023-02-13T14:37:30.055Z,1.47
2023-02-13T14:40:34.370Z,2.50
2023-02-13T14:43:39.432Z,1.30
2023-02-13T14:46:24.782Z,0.80
2023-02-13T14:48:59.944Z,1.20
2023-02-13T14:51:37.151Z,1.77
2023-02-13T14:54:14.515Z,4.53
2023-02-13T14:56:47.775Z,1.73
2023-02-13T14:59:20.864Z,2.37
2023-02-13T15:01:54.695Z,1.50
2023-02-13T15:04:31.970Z,1.57
2023-02-13T15:07:04.908Z,1.70
2023-02-13T15:09:39.821Z,2.30
2023-02-13T15:12:30.438Z,3.40
2023-02-13T15:15:02.238Z,2.27
2023-02-13T15:17:38.219Z,3.80
2023-02-13T15:20:21.314Z,2.43
2023-02-13T15:22:49.586Z,1.67
2023-02-13T15:25:26.965Z,3.20
2023-02-13T15:27:56.560Z,2.40
2023-02-13T15:30:27.877Z,2.70
2023-02-13T15:32:59.285Z,3.30
2023-02-13T15:35:30.895Z,2.53
2023-02-13T15:37:59.520Z,2.57
2023-02-13T15:40:30.513Z,2.40
2023-02-13T15:43:01.528Z,2.70
2023-02-13T15:45:32.001Z,2.80
2023-02-13T15:47:59.926Z,3.07
2023-02-13T15:50:32.249Z,2.80
2023-02-13T15:53:04.337Z,3.27
2023-02-13T15:55:36.541Z,2.40
2023-02-13T15:58:05.003Z,3.57
2023-02-13T16:00:38.085Z,2.30
2023-02-13T16:03:15.897Z,1.80
2023-02-13T16:05:47.842Z,2.50
2023-02-13T16:08:38.083Z,2.77
2023-02-13T16:11:33.362Z,3.20
2023-02-13T16:14:13.683Z,2.33
2023-02-13T16:16:53.494Z,2.07
2023-02-13T16:19:33.756Z,4.50
2023-02-13T16:22:08.945Z,3.60
2023-02-13T16:24:37.973Z,2.63
2023-02-13T16:27:13.878Z,2.90
2023-02-13T16:29:53.335Z,3.67
2023-02-13T16:32:30.260Z,3.37
2023-02-13T16:35:17.668Z,3.43
2023-02-13T16:37:56.132Z,6.47
2023-02-13T16:40:41.188Z,67.87
2023-02-13T16:43:47.391Z,57.87
2023-02-13T16:46:34.917Z,14.07
2023-02-13T16:49:20.724Z,38.07
2023-02-13T16:51:54.870Z,38.40
2023-02-13T16:54:33.392Z,26.27
2023-02-13T16:57:05.736Z,41.40
2023-02-13T16:59:49.573Z,10.77
2023-02-13T17:02:22.128Z,7.57
2023-02-13T17:04:54.944Z,7.43
2023-02-13T17:07:27.012Z,10.63
2023-02-13T17:10:01.757Z,9.07
2023-02-13T17:12:32.835Z,10.90
2023-02-13T17:15:01.392Z,8.90
2023-02-13T17:17:32.707Z,10.47
2023-02-13T17:20:04.070Z,11.30
2023-02-13T17:22:38.693Z,11.43
2023-02-13T17:25:12.945Z,10.57
2023-02-13T17:27:40.807Z,10.60
2023-02-13T17:30:13.616Z,10.23
2023-02-13T17:32:41.556Z,10.93
2023-02-13T17:35:12.540Z,9.17
2023-02-13T17:37:42.793Z,8.67
2023-02-13T17:40:18.938Z,8.17
2023-02-13T17:42:52.022Z,7.73
2023-02-13T17:45:24.201Z,7.73
2023-02-13T17:47:52.260Z,7.30
2023-02-13T17:50:22.809Z,8.77
2023-02-13T17:52:50.825Z,7.80
2023-02-13T17:55:24.404Z,6.93
2023-02-13T17:57:56.401Z,8.67
2023-02-13T18:00:26.919Z,9.10
2023-02-13T18:02:56.163Z,10.13
2023-02-13T18:05:25.722Z,11.00
2023-02-13T18:07:53.915Z,12.97
2023-02-13T18:10:25.561Z,13.47
2023-02-13T18:12:55.354Z,15.93
2023-02-13T18:15:24.290Z,13.40
2023-02-13T18:17:52.439Z,12.03
2023-02-13T18:20:22.227Z,14.90
2023-02-13T18:22:51.455Z,12.73
2023-02-13T18:25:21.874Z,20.50
2023-02-13T18:27:50.193Z,21.40
2023-02-13T18:30:21.418Z,14.97
2023-02-13T18:32:53.653Z,12.30
2023-02-13T18:35:21.969Z,11.63
2023-02-13T18:37:51.295Z,10.93
2023-02-13T18:40:19.758Z,12.87
2023-02-13T18:42:49.147Z,13.57
2023-02-13T18:45:18.396Z,9.97
2023-02-13T18:47:49.421Z,10.87
2023-02-13T18:50:17.408Z,10.47
2023-02-13T18:52:46.601Z,10.97
2023-02-13T18:55:16.522Z,11.83
2023-02-13T18:57:45.425Z,11.93
2023-02-13T19:00:15.922Z,10.97
2023-02-13T19:02:43.858Z,9.83
2023-02-13T19:05:12.827Z,11.90
2023-02-13T19:07:40.992Z,11.63
2023-02-13T19:10:10.084Z,12.47
2023-02-13T19:12:39.266Z,10.63
2023-02-13T19:15:08.106Z,13.47
2023-02-13T19:17:36.509Z,14.03
2023-02-13T19:20:06.432Z,11.73
2023-02-13T19:22:34.430Z,12.70
2023-02-13T19:25:02.635Z,13.13
2023-02-13T19:27:30.833Z,12.70
2023-02-13T19:30:00.103Z,15.23
2023-02-13T19:32:28.033Z,12.67
2023-02-13T19:34:55.889Z,13.30
2023-02-13T19:37:25.345Z,11.73
2023-02-13T19:39:54.997Z,14.30
2023-02-13T19:42:22.861Z,14.73
2023-02-13T19:44:53.629Z,11.87
2023-02-13T19:47:23.424Z,11.33
2023-02-13T19:49:52.477Z,14.43
2023-02-13T19:52:21.289Z,14.87
2023-02-13T19:54:49.717Z,15.77
2023-02-13T19:57:18.314Z,18.50
2023-02-13T19:59:46.205Z,19.50
2023-02-13T20:02:17.232Z,21.33
2023-02-13T20:04:46.640Z,20.77
2023-02-13T20:07:15.664Z,20.67
2023-02-13T20:09:44.763Z,20.03
2023-02-13T20:12:15.249Z,20.03
2023-02-13T20:14:43.092Z,18.03
2023-02-13T20:17:11.034Z,19.50
2023-02-13T20:19:39.685Z,21.17
2023-02-13T20:22:08.973Z,18.77
2023-02-13T20:24:37.121Z,24.70
2023-02-13T20:27:05.168Z,26.07
2023-02-13T20:29:33.400Z,29.90
2023-02-13T20:32:02.071Z,24.50
2023-02-13T20:34:37.652Z,24.53
2023-02-13T20:37:16.114Z,24.20
2023-02-13T20:39:44.039Z,22.80
2023-02-13T20:42:11.916Z,23.87
2023-02-13T20:44:39.828Z,22.97
2023-02-13T20:47:07.702Z,24.93
2023-02-13T20:49:35.528Z,22.57
2023-02-13T20:52:05.454Z,25.67
2023-02-13T20:54:34.625Z,23.70
2023-02-13T20:57:03.074Z,22.37
2023-02-13T20:59:31.478Z,19.97
2023-02-13T21:01:59.681Z,16.90
2023-02-13T21:04:29.038Z,20.43
2023-02-13T21:06:56.981Z,24.73
2023-02-13T21:09:25.736Z,23.23
2023-02-13T21:11:54.948Z,22.27
2023-02-13T21:14:22.819Z,26.47
2023-02-13T21:16:51.131Z,21.43
2023-02-13T21:19:20.438Z,23.60
2023-02-13T21:21:48.811Z,21.20
2023-02-13T21:24:21.269Z,23.37
2023-02-13T21:26:52.802Z,18.27
2023-02-13T21:29:22.063Z,19.47
2023-02-13T21:31:51.102Z,20.47
2023-02-13T21:34:19.541Z,20.67
2023-02-13T21:36:47.897Z,18.90
2023-02-13T21:39:16.172Z,15.47
2023-02-13T21:41:46.275Z,16.57
2023-02-13T21:44:16.114Z,17.03
2023-02-13T21:46:47.314Z,15.13
2023-02-13T21:49:18.788Z,13.67
2023-02-13T21:51:47.660Z,18.13
2023-02-13T21:54:15.747Z,18.93
2023-02-13T21:56:45.253Z,19.50
2023-02-13T21:59:16.471Z,24.93
2023-02-13T22:01:49.937Z,25.50
2023-02-13T22:04:18.850Z,20.80
2023-02-13T22:06:51.262Z,26.17
2023-02-13T22:09:21.844Z,28.47
2023-02-13T22:11:51.775Z,25.33
2023-02-13T22:14:20.251Z,20.93
2023-02-13T22:16:52.174Z,20.67
2023-02-13T22:19:21.200Z,19.17
2023-02-13T22:21:49.457Z,21.77
2023-02-13T22:24:17.360Z,20.10
2023-02-13T22:26:46.080Z,18.53
2023-02-13T22:29:17.625Z,18.90
2023-02-13T22:31:45.996Z,16.23
2023-02-13T22:34:15.752Z,17.43
2023-02-13T22:36:43.806Z,19.63
2023-02-13T22:39:13.250Z,16.23
2023-02-13T22:41:44.408Z,16.60
2023-02-13T22:44:12.303Z,16.80
2023-02-13T22:46:40.322Z,19.13
2023-02-13T22:49:08.257Z,20.77
2023-02-13T22:51:37.979Z,15.87
2023-02-13T22:54:06.350Z,16.10
2023-02-13T22:56:35.246Z,14.77
2023-02-13T22:59:03.652Z,19.00
2023-02-13T23:01:31.862Z,18.53
2023-02-13T23:03:59.807Z,18.10
2023-02-13T23:06:28.464Z,15.77
2023-02-13T23:08:58.343Z,18.60
2023-02-13T23:11:47.357Z,19.10
2023-02-13T23:14:16.306Z,15.27
2023-02-13T23:17:02.382Z,17.90
2023-02-13T23:19:30.846Z,17.33
2023-02-13T23:21:59.013Z,18.57
2023-02-13T23:24:28.655Z,20.77
2023-02-13T23:26:56.607Z,15.67
2023-02-13T23:29:24.579Z,16.60
2023-02-13T23:31:52.670Z,16.60
2023-02-13T23:34:20.688Z,18.13
2023-02-13T23:36:48.811Z,16.57
2023-02-13T23:39:16.753Z,19.53
2023-02-13T23:41:45.955Z,16.00
2023-02-13T23:44:13.883Z,21.10
2023-02-13T23:46:41.820Z,13.73
2023-02-13T23:49:09.756Z,15.43
2023-02-13T23:51:37.789Z,18.00
2023-02-13T23:54:05.724Z,17.23
2023-02-13T23:56:33.930Z,15.10
2023-02-13T23:59:03.160Z,16.30
